Time;durP1;ratioP1;P1;durP2;ratioP2;P2;SDS_P1;SDS_P2;PMS_P1;PMS_P2;Temp;Humidity;BMP_temperature;BMP_pressure;BME280_temperature;BME280_humidity;BME280_pressure;Samples;Min_cycle;Max_cycle;Signal;HPM_P1;HPM_P2
2023/01/22 00:00:29;;;;;;;8.70;8.50;;;-0.10;99.90;;;;;;6230632;23;20210;-83
2023/01/22 00:02:59;;;;;;;9.00;8.70;;;-0.10;99.90;;;;;;6231069;23;20195;-82
2023/01/22 00:05:28;;;;;;;8.90;8.60;;;-0.20;99.90;;;;;;6227940;23;20210;-82
2023/01/22 00:07:56;;;;;;;8.90;8.60;;;-0.20;99.90;;;;;;6228680;23;20190;-83
2023/01/22 00:10:24;;;;;;;9.07;8.77;;;-0.20;99.90;;;;;;6228846;23;20251;-82
2023/01/22 00:12:53;;;;;;;9.00;8.70;;;-0.20;99.90;;;;;;6228674;23;20225;-83
2023/01/22 00:15:27;;;;;;;9.07;8.77;;;-0.20;99.90;;;;;;6227649;23;20210;-82
2023/01/22 00:17:58;;;;;;;9.03;8.73;;;-0.20;99.90;;;;;;6229364;23;20216;-83
2023/01/22 00:20:26;;;;;;;9.10;8.80;;;-0.20;99.90;;;;;;6227580;23;20222;-82
2023/01/22 00:22:54;;;;;;;8.70;8.50;;;-0.10;99.90;;;;;;6228017;23;20210;-80
2023/01/22 00:25:22;;;;;;;9.03;8.73;;;-0.10;99.90;;;;;;6227654;23;20283;-82
2023/01/22 00:27:52;;;;;;;8.90;8.63;;;-0.20;99.90;;;;;;6227734;23;20202;-82
2023/01/22 00:30:26;;;;;;;9.00;8.70;;;-0.20;99.90;;;;;;6228610;23;20194;-82
2023/01/22 00:33:00;;;;;;;8.67;8.47;;;-0.10;99.90;;;;;;6231101;23;20203;-82
2023/01/22 00:35:30;;;;;;;9.03;8.73;;;-0.10;99.90;;;;;;6235011;23;20206;-83
2023/01/22 00:38:01;;;;;;;8.90;8.60;;;-0.10;99.90;;;;;;6237346;23;20197;-83
2023/01/22 00:40:29;;;;;;;9.03;8.73;;;-0.10;99.90;;;;;;6231469;23;20206;-82
2023/01/22 00:42:56;;;;;;;9.00;8.70;;;-0.10;99.90;;;;;;6239538;23;20191;-82
2023/01/22 00:45:32;;;;;;;9.07;8.77;;;-0.10;99.90;;;;;;6231132;23;20199;-82
2023/01/22 00:48:00;;;;;;;9.00;8.70;;;-0.20;99.90;;;;;;6230963;23;20274;-82
2023/01/22 00:50:27;;;;;;;9.10;8.80;;;-0.20;99.90;;;;;;6230804;23;20217;-83
2023/01/22 00:52:56;;;;;;;9.00;8.70;;;-0.10;99.90;;;;;;6229530;23;20251;-82
2023/01/22 00:55:27;;;;;;;9.07;8.77;;;-0.10;99.90;;;;;;6228987;23;20191;-82
2023/01/22 00:57:55;;;;;;;9.10;8.80;;;-0.10;99.90;;;;;;6228690;23;20187;-82
2023/01/22 01:00:24;;;;;;;9.10;8.80;;;-0.10;99.90;;;;;;6228638;23;20214;-82
2023/01/22 01:05:37;;;;;;;9.00;8.70;;;-0.10;99.90;;;;;;6230278;23;20190;-82
2023/01/22 01:08:08;;;;;;;8.50;8.30;;;-0.10;99.90;;;;;;6229786;23;20218;-82
2023/01/22 01:10:35;;;;;;;8.87;8.60;;;-0.10;99.90;;;;;;6228492;23;20201;-82
2023/01/22 01:13:03;;;;;;;8.60;8.40;;;-0.10;99.90;;;;;;6228783;23;20199;-83
2023/01/22 01:15:35;;;;;;;8.80;8.60;;;0.00;99.90;;;;;;6228494;23;20246;-83
2023/01/22 01:18:03;;;;;;;8.90;8.60;;;-0.10;99.90;;;;;;6228581;23;20234;-83
2023/01/22 01:20:31;;;;;;;9.07;8.77;;;-0.10;99.90;;;;;;6228101;23;20274;-81
2023/01/22 01:22:58;;;;;;;9.10;8.80;;;-0.10;99.90;;;;;;6231657;23;20198;-82
2023/01/22 01:25:26;;;;;;;9.10;8.80;;;0.00;99.90;;;;;;6230811;23;20211;-82
2023/01/22 01:27:53;;;;;;;9.00;8.70;;;0.00;99.90;;;;;;6229320;23;20223;-82
2023/01/22 01:30:21;;;;;;;9.10;8.80;;;0.00;99.90;;;;;;6228653;23;20242;-82
2023/01/22 01:32:50;;;;;;;9.10;8.80;;;0.00;99.90;;;;;;6228334;23;20203;-82
2023/01/22 01:35:18;;;;;;;8.97;8.67;;;0.10;99.90;;;;;;6228018;23;20298;-83
2023/01/22 01:37:45;;;;;;;9.10;8.80;;;0.00;99.90;;;;;;6228049;23;20293;-83
2023/01/22 01:40:13;;;;;;;8.80;8.60;;;0.00;99.90;;;;;;6228282;23;20294;-82
2023/01/22 01:42:43;;;;;;;8.80;8.60;;;0.10;99.90;;;;;;6228502;23;20249;-81
2023/01/22 01:45:29;;;;;;;9.00;8.70;;;0.10;99.90;;;;;;6228568;23;20194;-82
2023/01/22 01:48:06;;;;;;;9.00;8.70;;;0.10;99.90;;;;;;6228554;23;20206;-81
2023/01/22 01:50:35;;;;;;;9.00;8.70;;;0.10;99.90;;;;;;6228552;23;20265;-82
2023/01/22 01:53:03;;;;;;;8.90;8.60;;;0.00;99.90;;;;;;6230310;23;20199;-82
2023/01/22 01:55:35;;;;;;;9.00;8.70;;;0.00;99.90;;;;;;6231550;23;20194;-82
2023/01/22 01:58:13;;;;;;;8.90;8.60;;;0.00;99.90;;;;;;6230687;23;20210;-82
2023/01/22 02:00:44;;;;;;;8.90;8.60;;;0.00;99.90;;;;;;6229790;23;20261;-82
2023/01/22 02:03:14;;;;;;;9.00;8.70;;;0.00;99.90;;;;;;6229297;23;20207;-82
2023/01/22 02:05:44;;;;;;;9.17;8.87;;;0.00;99.90;;;;;;6229280;23;20284;-82
2023/01/22 02:08:12;;;;;;;9.10;8.80;;;-0.10;99.90;;;;;;6229211;23;20199;-83
2023/01/22 02:10:49;;;;;;;9.00;8.70;;;0.00;99.90;;;;;;6228357;23;20218;-82
2023/01/22 02:13:23;;;;;;;9.00;8.70;;;0.00;99.90;;;;;;6228616;23;20194;-82
2023/01/22 02:15:50;;;;;;;9.00;8.70;;;0.00;99.90;;;;;;6228823;23;20187;-82
2023/01/22 02:18:22;;;;;;;9.07;8.77;;;0.00;99.90;;;;;;6227639;23;20206;-82
2023/01/22 02:20:56;;;;;;;9.23;8.93;;;0.00;99.90;;;;;;6228533;23;20210;-82
2023/01/22 02:23:24;;;;;;;9.00;8.70;;;0.00;99.90;;;;;;6228650;23;20191;-82
2023/01/22 02:25:52;;;;;;;9.13;8.83;;;0.10;99.90;;;;;;6228534;23;20226;-82
2023/01/22 02:28:21;;;;;;;9.07;8.77;;;0.10;99.90;;;;;;6228707;23;20195;-83
2023/01/22 02:30:49;;;;;;;9.10;8.80;;;0.10;99.90;;;;;;6228348;23;20285;-83
2023/01/22 02:33:16;;;;;;;9.07;8.77;;;0.10;99.90;;;;;;6229201;23;20280;-82
2023/01/22 02:35:45;;;;;;;9.07;8.77;;;0.00;99.90;;;;;;6229040;23;20271;-82
2023/01/22 02:38:15;;;;;;;9.10;8.80;;;0.00;99.90;;;;;;6228733;23;20298;-82
2023/01/22 02:40:47;;;;;;;9.10;8.80;;;0.00;99.90;;;;;;6228491;23;20233;-83
2023/01/22 02:43:16;;;;;;;9.27;8.97;;;0.00;99.90;;;;;;6228556;23;20223;-82
2023/01/22 02:45:44;;;;;;;9.10;8.80;;;0.00;99.90;;;;;;6228158;23;20198;-82
2023/01/22 02:48:11;;;;;;;9.00;8.70;;;0.00;99.90;;;;;;6227777;23;20223;-81
2023/01/22 02:50:39;;;;;;;8.70;8.50;;;0.10;99.90;;;;;;6227933;23;20218;-82
2023/01/22 02:53:07;;;;;;;8.90;8.60;;;0.10;99.90;;;;;;6228208;23;20195;-82
2023/01/22 02:55:38;;;;;;;8.97;8.67;;;0.20;99.90;;;;;;6230246;23;20207;-82
2023/01/22 02:58:06;;;;;;;9.00;8.70;;;0.20;99.90;;;;;;6233837;23;20195;-81
2023/01/22 03:00:33;;;;;;;8.67;8.47;;;0.10;99.90;;;;;;6233253;23;20262;-81
2023/01/22 03:03:06;;;;;;;9.03;8.73;;;0.20;99.90;;;;;;6230571;23;20207;-81
2023/01/22 03:05:34;;;;;;;8.70;8.50;;;0.20;99.90;;;;;;6228934;23;20206;-83
2023/01/22 03:08:01;;;;;;;9.13;8.83;;;0.20;99.90;;;;;;6229344;23;20283;-82
2023/01/22 03:10:29;;;;;;;9.00;8.70;;;0.20;99.90;;;;;;6228592;23;20289;-81
2023/01/22 03:21:15;;;;;;;9.00;8.70;;;0.10;99.90;;;;;;6228088;23;20265;-83
2023/01/22 03:23:43;;;;;;;9.10;8.80;;;0.10;99.90;;;;;;6228737;23;20226;-82
2023/01/22 03:26:11;;;;;;;9.07;8.77;;;0.10;99.90;;;;;;6229209;23;20206;-83
2023/01/22 03:28:40;;;;;;;9.20;8.90;;;0.10;99.90;;;;;;6248665;22;20186;-82
2023/01/22 03:31:09;;;;;;;9.30;9.00;;;0.10;99.90;;;;;;6250035;22;20202;-81
2023/01/22 03:33:37;;;;;;;9.10;8.80;;;0.20;99.90;;;;;;6249349;22;20193;-82
2023/01/22 03:36:08;;;;;;;9.10;8.80;;;0.20;99.90;;;;;;6236008;23;20217;-82
2023/01/22 03:38:36;;;;;;;9.10;8.80;;;0.20;99.90;;;;;;6228749;23;20270;-82
2023/01/22 03:41:05;;;;;;;9.03;8.73;;;0.20;99.90;;;;;;6227896;23;20211;-82
2023/01/22 03:43:35;;;;;;;9.30;9.00;;;0.20;99.90;;;;;;6228325;23;20233;-82
2023/01/22 03:46:12;;;;;;;9.20;8.90;;;0.20;99.90;;;;;;6227483;23;20191;-82
2023/01/22 03:48:41;;;;;;;8.90;8.60;;;0.30;99.90;;;;;;6228424;23;20277;-82
2023/01/22 03:51:12;;;;;;;9.03;8.73;;;0.30;99.90;;;;;;6227616;23;20207;-83
2023/01/22 03:53:41;;;;;;;9.00;8.70;;;0.40;99.90;;;;;;6227695;23;20201;-82
2023/01/22 03:56:13;;;;;;;8.90;8.60;;;0.40;99.90;;;;;;6227531;23;20202;-83
2023/01/22 03:58:41;;;;;;;9.10;8.80;;;0.40;99.90;;;;;;6227731;23;20246;-82
2023/01/22 04:01:13;;;;;;;8.90;8.60;;;0.40;99.90;;;;;;6227058;23;20310;-83
2023/01/22 04:03:50;;;;;;;9.10;8.80;;;0.50;99.90;;;;;;6227580;23;20209;-83
2023/01/22 04:06:18;;;;;;;8.97;8.67;;;0.50;99.90;;;;;;6227470;23;20263;-83
2023/01/22 04:08:48;;;;;;;9.00;8.70;;;0.50;99.90;;;;;;6232203;23;20187;-82
2023/01/22 04:11:17;;;;;;;8.97;8.67;;;0.60;99.90;;;;;;6237417;23;20215;-82
2023/01/22 04:13:46;;;;;;;9.13;8.83;;;0.60;99.90;;;;;;6243206;22;20190;-81
2023/01/22 04:16:16;;;;;;;9.00;8.70;;;0.60;99.90;;;;;;6231542;23;20260;-83
2023/01/22 04:18:44;;;;;;;9.07;8.77;;;0.60;99.90;;;;;;6231201;23;20278;-82
2023/01/22 04:21:12;;;;;;;9.27;8.97;;;0.60;99.90;;;;;;6230350;23;20206;-83
2023/01/22 04:23:40;;;;;;;9.20;8.90;;;0.60;99.90;;;;;;6228201;23;20237;-83
2023/01/22 04:26:07;;;;;;;8.97;8.67;;;0.50;99.90;;;;;;6227359;23;20213;-83
2023/01/22 04:28:35;;;;;;;9.10;8.80;;;0.60;99.90;;;;;;6227838;23;20194;-83
2023/01/22 04:31:03;;;;;;;8.60;8.40;;;0.50;99.90;;;;;;6227191;23;20246;-83
2023/01/22 04:33:33;;;;;;;9.10;8.80;;;0.60;99.90;;;;;;6227329;23;20278;-83
2023/01/22 04:36:00;;;;;;;8.87;8.57;;;0.60;99.90;;;;;;6230839;23;20226;-82
2023/01/22 04:38:28;;;;;;;8.97;8.67;;;0.70;99.90;;;;;;6231923;23;20191;-83
2023/01/22 04:40:56;;;;;;;8.83;8.60;;;0.70;99.90;;;;;;6231563;23;20226;-82
2023/01/22 04:43:23;;;;;;;9.00;8.70;;;0.70;99.90;;;;;;6229236;23;20217;-83
2023/01/22 04:45:51;;;;;;;8.67;8.47;;;0.70;99.90;;;;;;6228372;23;20229;-83
2023/01/22 04:48:19;;;;;;;8.90;8.60;;;0.70;99.90;;;;;;6228739;23;20198;-83
2023/01/22 04:50:53;;;;;;;8.90;8.60;;;0.70;99.90;;;;;;6230540;23;20214;-82
2023/01/22 04:53:34;;;;;;;9.00;8.70;;;0.70;99.90;;;;;;6230070;23;20210;-82
2023/01/22 04:56:02;;;;;;;8.97;8.67;;;0.70;99.90;;;;;;6229306;23;20210;-83
2023/01/22 04:58:29;;;;;;;8.90;8.60;;;0.70;99.90;;;;;;6229157;23;20251;-81
2023/01/22 05:00:57;;;;;;;8.50;8.30;;;0.60;99.90;;;;;;6229028;23;20290;-82
2023/01/22 05:03:25;;;;;;;8.70;8.50;;;0.60;99.90;;;;;;6228935;23;20221;-83
2023/01/22 05:06:01;;;;;;;8.90;8.60;;;0.60;99.90;;;;;;6233125;23;20218;-82
2023/01/22 05:08:29;;;;;;;8.77;8.57;;;0.60;99.90;;;;;;6239187;23;20222;-83
2023/01/22 05:11:01;;;;;;;8.70;8.50;;;0.60;99.90;;;;;;6229356;23;20257;-83
2023/01/22 05:13:30;;;;;;;8.73;8.53;;;0.60;99.90;;;;;;6229144;23;20202;-82
2023/01/22 05:15:57;;;;;;;8.70;8.50;;;0.60;99.90;;;;;;6229399;23;20205;-82
2023/01/22 05:18:35;;;;;;;8.70;8.50;;;0.60;99.90;;;;;;6228286;23;20210;-83
2023/01/22 05:21:05;;;;;;;8.70;8.50;;;0.60;99.90;;;;;;6228620;23;21056;-83
2023/01/22 05:23:33;;;;;;;8.80;8.53;;;0.60;99.90;;;;;;6228724;23;20222;-82
2023/01/22 05:26:00;;;;;;;8.73;8.50;;;0.60;99.90;;;;;;6227725;23;20278;-83
2023/01/22 05:28:28;;;;;;;9.00;8.70;;;0.60;99.90;;;;;;6228030;23;20218;-83
2023/01/22 05:30:56;;;;;;;8.90;8.60;;;0.50;99.90;;;;;;6228276;23;20211;-82
2023/01/22 05:33:24;;;;;;;8.70;8.50;;;0.60;99.90;;;;;;6228886;23;20215;-83
2023/01/22 05:35:57;;;;;;;8.63;8.43;;;0.50;99.90;;;;;;6228372;23;20198;-82
2023/01/22 05:38:28;;;;;;;8.67;8.47;;;0.60;99.90;;;;;;6229279;23;20199;-83
2023/01/22 05:40:58;;;;;;;8.70;8.50;;;0.70;99.90;;;;;;6228598;23;20211;-82
2023/01/22 05:43:26;;;;;;;8.90;8.60;;;0.50;99.90;;;;;;6229264;23;20210;-83
2023/01/22 05:46:04;;;;;;;8.90;8.60;;;0.60;99.90;;;;;;6229163;23;20226;-82
2023/01/22 05:48:37;;;;;;;8.83;8.53;;;0.60;99.90;;;;;;6228518;23;20253;-83
2023/01/22 05:51:10;;;;;;;8.97;8.67;;;0.50;99.90;;;;;;6228580;23;20191;-83
2023/01/22 05:53:39;;;;;;;8.90;8.60;;;0.40;99.90;;;;;;6229299;23;20253;-83
2023/01/22 05:56:07;;;;;;;8.80;8.53;;;0.30;99.90;;;;;;6228938;23;20206;-82
2023/01/22 05:58:34;;;;;;;9.00;8.70;;;0.30;99.90;;;;;;6229174;23;20194;-82
2023/01/22 06:01:05;;;;;;;9.00;8.70;;;0.30;99.90;;;;;;6229004;23;20194;-82
2023/01/22 06:03:37;;;;;;;9.03;8.73;;;0.30;99.90;;;;;;6229461;23;20191;-83
2023/01/22 06:06:11;;;;;;;9.00;8.70;;;0.30;99.90;;;;;;6229359;23;20187;-83
2023/01/22 06:08:41;;;;;;;8.87;8.60;;;0.30;99.90;;;;;;6230570;23;20219;-81
2023/01/22 06:11:12;;;;;;;8.77;8.57;;;0.30;99.90;;;;;;6229181;23;20239;-81
2023/01/22 06:13:40;;;;;;;8.80;8.57;;;0.30;99.90;;;;;;6229395;23;20187;-82
2023/01/22 06:16:09;;;;;;;9.00;8.70;;;0.40;99.90;;;;;;6229336;23;20198;-82
2023/01/22 06:18:38;;;;;;;8.73;8.53;;;0.40;99.90;;;;;;6230155;23;20214;-82
2023/01/22 06:21:08;;;;;;;8.87;8.57;;;0.40;99.90;;;;;;6233186;23;20214;-82
2023/01/22 06:23:39;;;;;;;9.10;8.80;;;0.30;99.90;;;;;;6233537;23;20214;-83
2023/01/22 06:26:07;;;;;;;9.30;9.00;;;0.30;99.90;;;;;;6233065;23;20205;-83
2023/01/22 06:28:38;;;;;;;9.00;8.70;;;0.20;99.90;;;;;;6233048;23;20206;-83
2023/01/22 06:31:06;;;;;;;9.10;8.80;;;0.30;99.90;;;;;;6232428;23;20245;-82
2023/01/22 06:33:35;;;;;;;8.90;8.60;;;0.20;99.90;;;;;;6234888;23;20191;-83
2023/01/22 06:36:04;;;;;;;8.93;8.63;;;0.20;99.90;;;;;;6232723;23;20237;-82
2023/01/22 06:38:33;;;;;;;9.03;8.73;;;0.30;99.90;;;;;;6234480;23;20270;-83
2023/01/22 06:41:03;;;;;;;9.00;8.70;;;0.30;99.90;;;;;;6233724;23;20202;-83
2023/01/22 06:43:32;;;;;;;8.93;8.63;;;0.30;99.90;;;;;;6234334;23;20225;-83
2023/01/22 06:46:01;;;;;;;8.60;8.40;;;0.40;99.90;;;;;;6234161;23;20202;-83
2023/01/22 06:48:29;;;;;;;8.67;8.47;;;0.40;99.90;;;;;;6233539;23;20650;-82
2023/01/22 06:51:01;;;;;;;8.90;8.60;;;0.40;99.90;;;;;;6233590;23;20997;-83
2023/01/22 06:53:30;;;;;;;8.90;8.60;;;0.40;99.90;;;;;;6234920;23;20187;-82
2023/01/22 06:56:01;;;;;;;8.83;8.57;;;0.50;99.90;;;;;;6234359;23;20199;-83
2023/01/22 06:58:30;;;;;;;8.97;8.67;;;0.50;99.90;;;;;;6233996;23;20202;-82
2023/01/22 07:01:01;;;;;;;9.00;8.70;;;0.50;99.90;;;;;;6235173;23;20210;-82
2023/01/22 07:03:29;;;;;;;9.30;9.00;;;0.50;99.90;;;;;;6235167;23;20187;-82
2023/01/22 07:05:58;;;;;;;9.10;8.80;;;0.40;99.90;;;;;;6235436;23;20210;-83
2023/01/22 07:08:27;;;;;;;9.30;9.00;;;0.40;99.90;;;;;;6234802;23;20298;-83
2023/01/22 07:10:56;;;;;;;9.20;8.90;;;0.40;99.90;;;;;;6234193;23;20215;-82
2023/01/22 07:13:29;;;;;;;9.43;9.13;;;0.40;99.90;;;;;;6236585;23;20279;-83
2023/01/22 07:16:02;;;;;;;9.40;9.10;;;0.50;99.90;;;;;;6245681;23;20203;-82
2023/01/22 07:18:33;;;;;;;9.33;9.03;;;0.50;99.90;;;;;;6244820;23;20247;-82
2023/01/22 07:21:02;;;;;;;9.23;8.93;;;0.50;99.90;;;;;;6243260;23;20210;-83
2023/01/22 07:23:34;;;;;;;9.70;9.40;;;0.60;99.90;;;;;;6238968;23;20245;-83
2023/01/22 07:26:03;;;;;;;9.30;9.00;;;0.50;99.90;;;;;;6237585;23;20206;-82
2023/01/22 07:28:32;;;;;;;9.50;9.20;;;0.50;99.90;;;;;;6239378;23;20191;-83
2023/01/22 07:31:02;;;;;;;9.23;8.93;;;0.50;99.90;;;;;;6235937;23;20211;-83
2023/01/22 07:33:32;;;;;;;9.27;8.97;;;0.50;99.90;;;;;;6235804;23;20226;-82
2023/01/22 07:36:00;;;;;;;9.30;9.00;;;0.60;99.90;;;;;;6235075;23;21029;-82
2023/01/22 07:38:29;;;;;;;9.10;8.80;;;0.60;99.90;;;;;;6238959;23;20225;-82
2023/01/22 07:41:01;;;;;;;9.40;9.10;;;0.60;99.90;;;;;;6244988;23;20202;-83
2023/01/22 07:43:29;;;;;;;9.30;9.00;;;0.60;99.90;;;;;;6246101;22;20250;-82
2023/01/22 07:46:07;;;;;;;9.10;8.80;;;0.70;99.90;;;;;;6249551;22;20187;-82
2023/01/22 07:48:38;;;;;;;9.20;8.90;;;0.70;99.90;;;;;;6242352;23;20198;-82
2023/01/22 07:51:07;;;;;;;9.53;9.23;;;0.60;99.90;;;;;;6244616;22;20195;-83
2023/01/22 07:53:35;;;;;;;9.50;9.20;;;0.60;99.90;;;;;;6244469;23;20203;-82
2023/01/22 07:56:04;;;;;;;9.20;8.90;;;0.70;99.90;;;;;;6242977;23;20195;-82
2023/01/22 07:58:34;;;;;;;9.10;8.80;;;0.70;99.90;;;;;;6248551;22;20199;-83
2023/01/22 08:01:12;;;;;;;9.00;8.70;;;0.70;99.90;;;;;;6248020;22;20255;-82
2023/01/22 08:03:45;;;;;;;9.20;8.90;;;0.80;99.90;;;;;;6248650;22;20225;-82
2023/01/22 08:06:19;;;;;;;8.80;8.50;;;0.80;99.90;;;;;;6248511;22;20194;-82
2023/01/22 08:08:50;;;;;;;9.23;8.93;;;0.80;99.90;;;;;;6248708;22;20194;-82
2023/01/22 08:11:20;;;;;;;9.10;8.80;;;0.80;99.90;;;;;;6247654;22;20239;-82
2023/01/22 08:13:54;;;;;;;9.20;8.90;;;0.80;99.90;;;;;;6249098;22;20198;-83
2023/01/22 08:16:29;;;;;;;9.27;8.97;;;0.80;99.90;;;;;;6247857;22;20222;-82
2023/01/22 08:18:56;;;;;;;9.13;8.83;;;0.80;99.90;;;;;;6247058;23;20197;-82
2023/01/22 08:21:24;;;;;;;9.40;9.10;;;0.80;99.90;;;;;;6246296;22;20214;-82
2023/01/22 08:23:52;;;;;;;9.43;9.13;;;0.80;99.90;;;;;;6247351;23;20267;-82
2023/01/22 08:26:21;;;;;;;9.40;9.10;;;0.90;99.90;;;;;;6247081;22;20187;-82
2023/01/22 08:28:48;;;;;;;9.10;8.80;;;1.00;99.90;;;;;;6247179;23;20221;-82
2023/01/22 08:31:16;;;;;;;8.70;8.50;;;1.10;99.90;;;;;;6248974;22;20183;-82
2023/01/22 08:33:48;;;;;;;9.10;8.80;;;1.00;99.90;;;;;;6247747;22;20206;-83
2023/01/22 08:36:15;;;;;;;9.33;9.03;;;1.00;99.90;;;;;;6246545;22;20179;-83
2023/01/22 08:38:45;;;;;;;9.10;8.80;;;1.10;99.90;;;;;;6249133;22;20203;-82
2023/01/22 08:41:14;;;;;;;9.25;8.95;;;1.00;99.90;;;;;;6247284;22;20057;-83
2023/01/22 08:43:42;;;;;;;9.80;9.50;;;1.00;99.90;;;;;;6237416;23;20408;-82
2023/01/22 08:46:10;;;;;;;9.63;9.33;;;1.00;99.90;;;;;;6235919;23;20195;-83
2023/01/22 08:48:44;;;;;;;9.47;9.17;;;1.10;99.90;;;;;;6236523;23;20195;-85
2023/01/22 08:51:14;;;;;;;9.30;9.00;;;1.00;99.90;;;;;;6232056;23;20199;-84
2023/01/22 08:53:42;;;;;;;9.40;9.10;;;1.10;99.90;;;;;;6231602;23;20255;-84
2023/01/22 08:56:10;;;;;;;9.40;9.10;;;1.20;99.90;;;;;;6232411;23;20223;-84
2023/01/22 08:58:41;;;;;;;9.30;9.00;;;1.20;99.90;;;;;;6231967;23;20226;-84
2023/01/22 09:01:20;;;;;;;9.20;8.90;;;1.10;99.90;;;;;;6231989;23;20282;-84
2023/01/22 09:03:48;;;;;;;8.80;8.60;;;1.00;99.90;;;;;;6231223;23;20187;-86
2023/01/22 09:06:45;;;;;;;8.90;8.67;;;1.00;99.90;;;;;;6231218;23;20191;-83
2023/01/22 09:09:13;;;;;;;9.40;9.10;;;0.90;99.90;;;;;;6230418;23;20251;-85
2023/01/22 09:11:41;;;;;;;9.30;9.00;;;0.90;99.90;;;;;;6230207;23;20222;-87
2023/01/22 09:14:12;;;;;;;9.30;9.00;;;1.00;99.90;;;;;;6229335;23;20206;-85
2023/01/22 09:16:42;;;;;;;9.40;9.10;;;0.90;99.90;;;;;;6229462;23;20191;-84
2023/01/22 09:19:11;;;;;;;9.50;9.20;;;0.90;99.90;;;;;;6229354;23;20218;-85
2023/01/22 09:21:50;;;;;;;9.50;9.20;;;0.90;99.90;;;;;;6229313;23;20245;-85
2023/01/22 09:24:18;;;;;;;9.50;9.20;;;0.90;99.90;;;;;;6231486;23;20250;-86
2023/01/22 09:26:48;;;;;;;9.40;9.10;;;1.00;99.90;;;;;;6231749;23;20199;-86
2023/01/22 09:29:23;;;;;;;9.40;9.10;;;0.90;99.90;;;;;;6231134;23;20203;-86
2023/01/22 09:31:55;;;;;;;9.37;9.07;;;1.00;99.90;;;;;;6230778;23;20190;-86
2023/01/22 09:34:25;;;;;;;9.50;9.20;;;1.00;99.90;;;;;;6232312;23;20732;-87
2023/01/22 09:37:21;;;;;;;9.30;9.00;;;1.00;99.90;;;;;;6207601;23;20277;-85
2023/01/22 09:39:50;;;;;;;9.60;9.30;;;1.00;99.90;;;;;;6233960;23;20199;-86
2023/01/22 09:42:30;;;;;;;9.60;9.30;;;1.10;99.90;;;;;;6233831;23;20230;-86
2023/01/22 09:45:07;;;;;;;9.50;9.20;;;1.10;99.90;;;;;;6237595;23;20226;-84
2023/01/22 09:47:46;;;;;;;9.40;9.10;;;1.10;99.90;;;;;;6240195;23;20210;-84
2023/01/22 09:50:24;;;;;;;9.17;8.87;;;1.20;99.90;;;;;;6244861;23;20198;-86
2023/01/22 09:53:20;;;;;;;9.20;8.90;;;1.20;99.90;;;;;;6238866;23;20209;-85
2023/01/22 09:55:52;;;;;;;9.20;8.90;;;1.20;99.90;;;;;;6233381;23;20214;-84
2023/01/22 09:58:28;;;;;;;9.07;8.77;;;1.30;99.90;;;;;;6242837;23;20195;-85
2023/01/22 10:01:05;;;;;;;9.30;9.00;;;1.30;99.90;;;;;;6235856;23;20202;-86
2023/01/22 10:03:43;;;;;;;9.10;8.80;;;1.30;99.90;;;;;;6235595;23;20237;-87
2023/01/22 10:06:14;;;;;;;9.90;9.60;;;1.20;99.90;;;;;;6232900;23;20195;-85
2023/01/22 10:08:53;;;;;;;9.30;9.00;;;1.30;99.90;;;;;;6230173;23;20249;-83
2023/01/22 10:11:21;;;;;;;9.00;8.70;;;1.50;99.90;;;;;;6230711;23;20199;-84
2023/01/22 10:13:57;;;;;;;8.97;8.70;;;1.50;99.90;;;;;;6232695;23;20227;-84
2023/01/22 10:16:27;;;;;;;9.33;9.03;;;1.60;99.90;;;;;;6230281;23;20203;-85
2023/01/22 10:19:06;;;;;;;9.20;8.90;;;1.60;99.90;;;;;;6234493;23;20258;-86
2023/01/22 10:21:44;;;;;;;9.20;8.90;;;1.60;99.90;;;;;;6230166;23;20199;-85
2023/01/22 10:24:23;;;;;;;9.40;9.10;;;1.60;99.90;;;;;;6229823;23;20195;-86
2023/01/22 10:26:53;;;;;;;9.30;9.00;;;1.60;99.90;;;;;;6229592;23;20207;-85
2023/01/22 10:29:30;;;;;;;9.30;9.00;;;1.70;99.90;;;;;;6229144;23;20230;-86
2023/01/22 10:32:01;;;;;;;9.17;8.87;;;1.70;99.90;;;;;;6240779;22;20190;-86
2023/01/22 10:34:32;;;;;;;9.37;9.07;;;1.60;99.90;;;;;;6233804;22;20261;-87
2023/01/22 10:37:02;;;;;;;9.30;9.00;;;1.60;99.90;;;;;;6229062;23;20202;-84
2023/01/22 10:39:40;;;;;;;9.37;9.07;;;1.60;99.90;;;;;;6229926;23;20259;-85
2023/01/22 10:42:17;;;;;;;9.23;8.93;;;1.50;99.90;;;;;;6229433;23;20201;-87
2023/01/22 10:44:46;;;;;;;9.30;9.00;;;1.60;99.90;;;;;;6228567;23;20194;-85
2023/01/22 10:47:26;;;;;;;9.23;8.93;;;1.60;99.90;;;;;;6228074;23;20211;-84
2023/01/22 10:50:12;;;;;;;9.50;9.20;;;1.70;99.90;;;;;;6228208;23;20202;-85
2023/01/22 10:52:49;;;;;;;9.10;8.80;;;1.80;99.90;;;;;;6226849;23;20202;-84
2023/01/22 10:55:28;;;;;;;9.13;8.83;;;1.90;99.90;;;;;;6228562;23;20195;-85
2023/01/22 10:58:01;;;;;;;9.40;9.10;;;1.90;99.90;;;;;;6238046;23;20298;-85
2023/01/22 11:00:35;;;;;;;9.37;9.07;;;1.90;99.90;;;;;;6230966;23;20202;-84
2023/01/22 11:03:20;;;;;;;9.03;8.73;;;1.90;99.90;;;;;;6234803;23;20250;-84
2023/01/22 11:05:52;;;;;;;9.10;8.80;;;2.00;99.90;;;;;;6233823;23;20186;-84
2023/01/22 11:08:29;;;;;;;9.10;8.80;;;2.00;99.90;;;;;;6231385;23;20225;-84
2023/01/22 11:11:08;;;;;;;9.20;8.90;;;2.00;99.90;;;;;;6231839;23;20202;-83
2023/01/22 11:16:37;;;;;;;9.30;9.00;;;2.10;99.90;;;;;;6233287;23;20324;-84
2023/01/22 11:19:12;;;;;;;9.40;9.10;;;2.20;99.90;;;;;;6234188;23;20208;-84
2023/01/22 11:24:39;;;;;;;9.20;8.90;;;2.20;99.90;;;;;;6230640;23;20232;-84
2023/01/22 11:27:59;;;;;;;9.40;9.10;;;2.10;99.90;;;;;;6230991;23;20214;-86
2023/01/22 11:31:04;;;;;;;9.20;8.90;;;2.10;99.90;;;;;;6230682;23;20207;-86
2023/01/22 11:37:15;;;;;;;9.20;8.90;;;2.10;99.90;;;;;;6224653;23;20273;-86
2023/01/22 11:40:19;;;;;;;9.20;8.90;;;2.10;99.90;;;;;;6238691;23;20189;-85
2023/01/22 11:43:15;;;;;;;9.20;8.90;;;2.10;99.90;;;;;;6243732;23;20928;-85
2023/01/22 11:46:05;;;;;;;9.17;8.87;;;2.10;99.90;;;;;;6229310;23;20266;-85
2023/01/22 11:49:05;;;;;;;8.90;8.70;;;2.00;99.90;;;;;;6228846;23;20195;-85
2023/01/22 11:51:37;;;;;;;8.80;8.60;;;2.10;99.90;;;;;;6229450;23;20203;-85
2023/01/22 11:54:40;;;;;;;9.10;8.80;;;2.10;99.90;;;;;;6228558;23;20206;-84
2023/01/22 11:57:18;;;;;;;9.40;9.10;;;2.10;99.90;;;;;;6225051;23;20245;-85
2023/01/22 12:00:24;;;;;;;9.30;9.00;;;2.10;99.90;;;;;;6228610;23;20199;-85
2023/01/22 12:03:29;;;;;;;9.17;8.87;;;2.10;99.90;;;;;;6231349;23;20199;-84
2023/01/22 12:06:19;;;;;;;9.37;9.07;;;2.10;99.90;;;;;;6233466;23;20198;-85
2023/01/22 12:09:01;;;;;;;9.40;9.10;;;2.00;99.90;;;;;;6230449;23;20223;-83
2023/01/22 12:12:10;;;;;;;9.20;8.90;;;2.10;99.90;;;;;;6231950;23;20199;-85
2023/01/22 12:15:13;;;;;;;9.47;9.17;;;2.20;99.90;;;;;;6222262;23;20198;-85
2023/01/22 12:18:06;;;;;;;9.40;9.10;;;2.10;99.90;;;;;;6238940;23;20187;-84
2023/01/22 12:21:11;;;;;;;9.20;8.90;;;2.00;99.90;;;;;;6200188;22;20210;-87
2023/01/22 12:24:06;;;;;;;9.17;8.87;;;2.10;99.90;;;;;;6197406;23;20195;-88
2023/01/22 12:26:56;;;;;;;9.30;9.00;;;2.00;99.90;;;;;;6197126;23;20196;-86
2023/01/22 12:29:31;;;;;;;9.17;8.87;;;2.00;99.90;;;;;;6198928;23;20211;-84
2023/01/22 12:32:14;;;;;;;9.40;9.10;;;2.10;99.90;;;;;;6198046;23;20277;-86
2023/01/22 12:42:38;;;;;;;;;;;;;;;;;;;;;
2023/01/22 12:52:57;;;;;;;9.10;8.80;;;2.20;99.90;;;;;;6125580;23;20218;-89
2023/01/22 13:10:37;;;;;;;9.43;9.13;;;2.30;99.90;;;;;;6089380;22;20211;-88
2023/01/22 13:13:42;;;;;;;9.60;9.30;;;2.20;99.90;;;;;;6209744;23;20223;-88
2023/01/22 13:42:28;;;;;;;;;;;;;;;;;;;;;
2023/01/22 14:03:11;;;;;;;9.50;9.20;;;2.20;99.90;;;;;;6233707;23;20239;-89
2023/01/22 14:09:13;;;;;;;9.20;8.90;;;2.10;99.90;;;;;;6227270;23;20210;-90
2023/01/22 14:11:53;;;;;;;9.17;8.87;;;2.10;99.90;;;;;;6230825;23;20258;-88
2023/01/22 14:27:58;;;;;;;9.10;8.80;;;2.30;99.90;;;;;;6178577;23;20207;-87
2023/01/22 14:31:14;;;;;;;9.20;8.90;;;2.30;99.90;;;;;;6199892;23;20199;-88
2023/01/22 14:33:56;;;;;;;9.13;8.83;;;2.30;99.90;;;;;;6200498;23;20213;-88
2023/01/22 14:36:37;;;;;;;9.20;8.90;;;2.20;99.90;;;;;;6198496;23;20191;-88
2023/01/22 14:39:07;;;;;;;9.17;8.87;;;2.20;99.90;;;;;;6199544;23;20214;-87
2023/01/22 14:45:44;;;;;;;9.17;8.87;;;2.10;99.90;;;;;;6085956;23;20211;-86
2023/01/22 15:03:35;;;;;;;9.40;9.10;;;2.10;99.90;;;;;;5997683;23;20235;-88
2023/01/22 15:46:07;;;;;;;10.00;9.70;;;2.00;99.90;;;;;;6169808;23;20471;-87
2023/01/22 15:48:35;;;;;;;9.87;9.57;;;2.10;99.90;;;;;;6169740;23;20247;-86
2023/01/22 15:55:10;;;;;;;9.40;9.10;;;2.10;99.90;;;;;;6081257;23;20248;-87
2023/01/22 16:01:04;;;;;;;9.60;9.30;;;1.90;99.90;;;;;;6163930;23;20211;-87
2023/01/22 16:07:01;;;;;;;9.53;9.23;;;2.00;99.90;;;;;;6136362;23;20200;-88
2023/01/22 16:09:32;;;;;;;8.93;8.73;;;1.90;99.90;;;;;;6168391;23;20244;-86
2023/01/22 16:16:35;;;;;;;8.40;8.20;;;2.20;99.90;;;;;;6025627;23;20204;-86
2023/01/22 16:19:12;;;;;;;8.60;8.40;;;2.40;99.90;;;;;;6057630;23;20210;-88
2023/01/22 16:24:26;;;;;;;9.30;9.00;;;2.20;99.90;;;;;;6172236;23;20203;-86
2023/01/22 16:26:56;;;;;;;9.30;9.00;;;2.10;99.90;;;;;;6174005;23;20202;-87
2023/01/22 16:29:25;;;;;;;9.70;9.40;;;2.00;99.90;;;;;;6169221;23;20200;-87
2023/01/22 16:31:57;;;;;;;9.50;9.20;;;2.00;99.90;;;;;;6169256;23;20228;-86
2023/01/22 16:46:36;;;;;;;9.07;8.80;;;1.70;99.90;;;;;;6199895;23;20200;-87
2023/01/22 16:49:14;;;;;;;9.30;9.00;;;1.70;99.90;;;;;;6207104;23;20233;-82